KPUB/PUB METAR and TAF weather

Enter ICAO airport designator
Station Type Date Time Source
KPUB METAR 2020/02/25 12:53 UTC NOAA

KPUB 251253Z 36010KT 10SM CLR M02/M12 A3008 RMK AO2 SLP201 T10221117


Station Type Date Time Source
KPUB Decoded METAR 2020/02/25 12:53 UTC NOAA

PUEBLO MEMORIAL AIRPORT, CO, United States (KPUB) 38-17N 104-30W 1420M
Feb 25, 2020 - 07:53 AM EST / 2020.02.25 1253 UTC
Wind: from the N (360 degrees) at 12 MPH (10 KT):0
Visibility: 10 mile(s):0
Sky conditions: clear
Temperature: 28.0 F (-2.2 C)
Windchill: 17 F (-8 C):1
Dew Point: 10.9 F (-11.7 C)
Relative Humidity: 48%
Pressure (altimeter): 30.08 in. Hg (1018 hPa)
ob: KPUB 251253Z 36010KT 10SM CLR M02/M12 A3008 RMK AO2 SLP201 T10221117
cycle: 13

Station Type Date Time Source
KPUB TAF 2020/02/25 12:46 UTC NOAA

TAF KPUB 251143Z 2512/2612 36008KT P6SM FEW120 SCT150
FM251400 34015G27KT P6SM SCT100 BKN150
FM251500 35030G45KT P6SM SCT100 BKN150
FM251800 36035G48KT P6SM VCSH SCT050 BKN090
FM260200 01013KT P6SM SCT040 BKN070

Example: see airport list